Ortiz, Colorado
Current Conditions -  °F | °C
As of 4:52 AM on Monday 20 Oct 2014 (Local Time) from KALS Reporting Station
Broken Clouds Broken Clouds  
Wind Chill: 32°   Ceiling: 9000
Heat Index: 32°   Visibility: 10mi
Dew Point: 29°   Wind: 3mph
Humidity: 88%   Direction: 120°ESE
Pressure: 30.28"   Gusts: NA
Location:  37.1816°N, 106.262°W
Report Text: KALS 201052Z AUTO 12003KT 10SM BKN090 00/M02 A3028 RMK AO2 SLP199 T00001017 $
Loading
Personal Weather Stations






























Interactive Weather Map
Tropical Storm Tracking
New forecast layout! Learn more

10-Day Weather Forecast

Advertisements
Track Severe Weather on mobile